sensor_id;sensor_type;location;lat;lon;timestamp;pressure;altitude;pressure_sealevel;temperature;humidity
50977;BME280;36992;48.200;12.418;2023-05-29T00:00:38;96693.13;;;20.87;37.65
50977;BME280;36992;48.200;12.418;2023-05-29T00:03:05;96690.63;;;20.82;37.70
50977;BME280;36992;48.200;12.418;2023-05-29T00:05:32;96696.03;;;20.79;37.88
50977;BME280;36992;48.200;12.418;2023-05-29T00:07:58;96690.50;;;20.75;38.06
50977;BME280;36992;48.200;12.418;2023-05-29T00:10:26;96690.50;;;20.75;37.79
50977;BME280;36992;48.200;12.418;2023-05-29T00:12:52;96687.25;;;20.69;38.37
50977;BME280;36992;48.200;12.418;2023-05-29T00:15:21;96690.34;;;20.68;38.18
50977;BME280;36992;48.200;12.418;2023-05-29T00:17:47;96686.38;;;20.65;38.32
50977;BME280;36992;48.200;12.418;2023-05-29T00:20:14;96689.47;;;20.63;38.13
50977;BME280;36992;48.200;12.418;2023-05-29T00:22:41;96684.75;;;20.60;38.56
50977;BME280;36992;48.200;12.418;2023-05-29T00:25:08;96687.06;;;20.58;38.00
50977;BME280;36992;48.200;12.418;2023-05-29T00:27:36;96690.13;;;20.57;38.14
50977;BME280;36992;48.200;12.418;2023-05-29T00:30:03;96681.41;;;20.51;38.89
50977;BME280;36992;48.200;12.418;2023-05-29T00:32:30;96686.03;;;20.47;38.67
50977;BME280;36992;48.200;12.418;2023-05-29T00:34:57;96692.19;;;20.44;39.01
50977;BME280;36992;48.200;12.418;2023-05-29T00:37:24;96684.25;;;20.39;38.50
50977;BME280;36992;48.200;12.418;2023-05-29T00:39:50;96681.47;;;20.35;38.79
50977;BME280;36992;48.200;12.418;2023-05-29T00:42:17;96687.31;;;20.33;38.90
50977;BME280;36992;48.200;12.418;2023-05-29T00:44:45;96685.28;;;20.30;38.75
50977;BME280;36992;48.200;12.418;2023-05-29T00:47:12;96679.72;;;20.27;39.09
50977;BME280;36992;48.200;12.418;2023-05-29T00:49:38;96684.38;;;20.26;39.16
50977;BME280;36992;48.200;12.418;2023-05-29T00:52:06;96677.34;;;20.25;38.42
50977;BME280;36992;48.200;12.418;2023-05-29T00:54:33;96680.78;;;20.22;39.07
50977;BME280;36992;48.200;12.418;2023-05-29T00:57:01;96684.69;;;20.21;38.85
50977;BME280;36992;48.200;12.418;2023-05-29T00:59:30;96684.22;;;20.19;39.05
50977;BME280;36992;48.200;12.418;2023-05-29T01:01:59;96686.19;;;20.18;38.86
50977;BME280;36992;48.200;12.418;2023-05-29T01:04:27;96686.47;;;20.13;39.43
50977;BME280;36992;48.200;12.418;2023-05-29T01:06:54;96692.28;;;20.12;39.09
50977;BME280;36992;48.200;12.418;2023-05-29T01:09:21;96699.25;;;20.09;39.18
50977;BME280;36992;48.200;12.418;2023-05-29T01:11:54;96700.81;;;20.10;38.82
50977;BME280;36992;48.200;12.418;2023-05-29T01:14:29;96699.97;;;20.06;38.75
50977;BME280;36992;48.200;12.418;2023-05-29T01:17:06;96705.44;;;20.06;38.41
50977;BME280;36992;48.200;12.418;2023-05-29T01:19:58;96700.75;;;20.06;37.90
50977;BME280;36992;48.200;12.418;2023-05-29T01:22:46;96701.00;;;20.01;38.42
50977;BME280;36992;48.200;12.418;2023-05-29T01:25:23;96695.84;;;19.96;38.47
50977;BME280;36992;48.200;12.418;2023-05-29T01:27:54;96696.50;;;19.93;38.79
50977;BME280;36992;48.200;12.418;2023-05-29T01:30:22;96695.53;;;19.85;39.29
50977;BME280;36992;48.200;12.418;2023-05-29T01:32:51;96694.28;;;19.82;39.39
50977;BME280;36992;48.200;12.418;2023-05-29T01:35:18;96692.28;;;19.79;39.95
50977;BME280;36992;48.200;12.418;2023-05-29T01:37:44;96688.75;;;19.79;39.92
50977;BME280;36992;48.200;12.418;2023-05-29T01:40:12;96692.63;;;19.78;39.91
50977;BME280;36992;48.200;12.418;2023-05-29T01:42:39;96695.72;;;19.76;39.67
50977;BME280;36992;48.200;12.418;2023-05-29T01:45:08;96696.09;;;19.75;39.21
50977;BME280;36992;48.200;12.418;2023-05-29T01:47:35;96692.81;;;19.69;40.03
50977;BME280;36992;48.200;12.418;2023-05-29T01:50:03;96688.06;;;19.66;39.71
50977;BME280;36992;48.200;12.418;2023-05-29T01:52:30;96691.06;;;19.61;40.21
50977;BME280;36992;48.200;12.418;2023-05-29T01:54:57;96683.53;;;19.58;40.39
50977;BME280;36992;48.200;12.418;2023-05-29T01:57:23;96687.00;;;19.54;40.08
50977;BME280;36992;48.200;12.418;2023-05-29T01:59:51;96682.59;;;19.50;40.22
50977;BME280;36992;48.200;12.418;2023-05-29T02:02:21;96676.75;;;19.51;39.32
50977;BME280;36992;48.200;12.418;2023-05-29T02:04:48;96682.03;;;19.44;40.47
50977;BME280;36992;48.200;12.418;2023-05-29T02:07:14;96692.09;;;19.40;39.95
50977;BME280;36992;48.200;12.418;2023-05-29T02:09:41;96689.63;;;19.35;40.41
50977;BME280;36992;48.200;12.418;2023-05-29T02:12:08;96690.31;;;19.32;40.12
50977;BME280;36992;48.200;12.418;2023-05-29T02:14:34;96683.19;;;19.27;40.79
50977;BME280;36992;48.200;12.418;2023-05-29T02:17:02;96688.53;;;19.23;40.10
50977;BME280;36992;48.200;12.418;2023-05-29T02:19:31;96679.91;;;19.21;40.03
50977;BME280;36992;48.200;12.418;2023-05-29T02:21:57;96677.44;;;19.16;40.59
50977;BME280;36992;48.200;12.418;2023-05-29T02:24:23;96679.38;;;19.16;40.79
50977;BME280;36992;48.200;12.418;2023-05-29T02:26:50;96673.47;;;19.13;40.69
50977;BME280;36992;48.200;12.418;2023-05-29T02:29:17;96680.84;;;19.13;40.95
50977;BME280;36992;48.200;12.418;2023-05-29T02:31:43;96678.13;;;19.13;40.64
50977;BME280;36992;48.200;12.418;2023-05-29T02:34:10;96677.69;;;19.11;40.34
50977;BME280;36992;48.200;12.418;2023-05-29T02:36:38;96679.28;;;19.12;40.28
50977;BME280;36992;48.200;12.418;2023-05-29T02:39:05;96678.84;;;19.10;40.62
50977;BME280;36992;48.200;12.418;2023-05-29T02:41:31;96684.97;;;19.07;40.76
50977;BME280;36992;48.200;12.418;2023-05-29T02:43:58;96679.09;;;19.05;40.64
50977;BME280;36992;48.200;12.418;2023-05-29T02:46:24;96678.66;;;19.03;40.49
50977;BME280;36992;48.200;12.418;2023-05-29T02:48:51;96683.63;;;19.00;40.86
50977;BME280;36992;48.200;12.418;2023-05-29T02:51:18;96680.44;;;18.98;40.86
50977;BME280;36992;48.200;12.418;2023-05-29T02:53:45;96678.88;;;18.97;40.57
50977;BME280;36992;48.200;12.418;2023-05-29T02:56:13;96678.41;;;18.95;40.92
50977;BME280;36992;48.200;12.418;2023-05-29T02:58:40;96683.00;;;18.91;40.58
50977;BME280;36992;48.200;12.418;2023-05-29T03:01:07;96680.16;;;18.87;40.56
50977;BME280;36992;48.200;12.418;2023-05-29T03:03:34;96678.13;;;18.84;40.77
50977;BME280;36992;48.200;12.418;2023-05-29T03:06:00;96688.94;;;18.81;40.96
50977;BME280;36992;48.200;12.418;2023-05-29T03:08:27;96685.75;;;18.79;40.83
50977;BME280;36992;48.200;12.418;2023-05-29T03:10:55;96678.72;;;18.78;40.74
50977;BME280;36992;48.200;12.418;2023-05-29T03:13:22;96680.53;;;18.73;40.88
50977;BME280;36992;48.200;12.418;2023-05-29T03:15:48;96675.34;;;18.68;41.23
50977;BME280;36992;48.200;12.418;2023-05-29T03:18:16;96684.66;;;18.67;41.33
50977;BME280;36992;48.200;12.418;2023-05-29T03:20:42;96679.88;;;18.64;41.01
50977;BME280;36992;48.200;12.418;2023-05-29T03:23:09;96683.31;;;18.61;41.21
50977;BME280;36992;48.200;12.418;2023-05-29T03:25:35;96686.75;;;18.58;41.46
50977;BME280;36992;48.200;12.418;2023-05-29T03:28:03;96692.19;;;18.58;41.00
50977;BME280;36992;48.200;12.418;2023-05-29T03:30:30;96692.88;;;18.55;41.34
50977;BME280;36992;48.200;12.418;2023-05-29T03:32:56;96689.25;;;18.51;41.62
50977;BME280;36992;48.200;12.418;2023-05-29T03:35:28;96695.06;;;18.49;41.23
50977;BME280;36992;48.200;12.418;2023-05-29T03:37:54;96699.28;;;18.46;41.20
50977;BME280;36992;48.200;12.418;2023-05-29T03:40:21;96699.94;;;18.43;41.65
50977;BME280;36992;48.200;12.418;2023-05-29T03:42:48;96693.25;;;18.41;41.59
50977;BME280;36992;48.200;12.418;2023-05-29T03:45:15;96697.91;;;18.40;41.74
50977;BME280;36992;48.200;12.418;2023-05-29T03:47:42;96702.47;;;18.36;41.69
50977;BME280;36992;48.200;12.418;2023-05-29T03:50:09;96700.88;;;18.35;42.17
50977;BME280;36992;48.200;12.418;2023-05-29T03:52:36;96697.72;;;18.33;42.02
50977;BME280;36992;48.200;12.418;2023-05-29T03:55:03;96702.34;;;18.32;42.13
50977;BME280;36992;48.200;12.418;2023-05-29T03:57:29;96698.81;;;18.32;41.69
50977;BME280;36992;48.200;12.418;2023-05-29T03:59:56;96707.00;;;18.32;42.03
50977;BME280;36992;48.200;12.418;2023-05-29T04:02:24;96705.09;;;18.32;41.63
50977;BME280;36992;48.200;12.418;2023-05-29T04:04:50;96708.47;;;18.29;42.07
50977;BME280;36992;48.200;12.418;2023-05-29T04:07:18;96710.88;;;18.31;42.07
50977;BME280;36992;48.200;12.418;2023-05-29T04:09:45;96712.00;;;18.30;42.32
50977;BME280;36992;48.200;12.418;2023-05-29T04:12:12;96708.47;;;18.29;42.30
50977;BME280;36992;48.200;12.418;2023-05-29T04:14:38;96710.44;;;18.29;42.58
50977;BME280;36992;48.200;12.418;2023-05-29T04:17:05;96715.44;;;18.27;42.27
50977;BME280;36992;48.200;12.418;2023-05-29T04:19:33;96710.78;;;18.27;41.99
50977;BME280;36992;48.200;12.418;2023-05-29T04:21:59;96715.78;;;18.25;42.78
50977;BME280;36992;48.200;12.418;2023-05-29T04:24:26;96717.69;;;18.25;42.78
50977;BME280;36992;48.200;12.418;2023-05-29T04:26:52;96717.69;;;18.25;42.84
50977;BME280;36992;48.200;12.418;2023-05-29T04:29:19;96727.00;;;18.24;42.70
50977;BME280;36992;48.200;12.418;2023-05-29T04:31:45;96723.16;;;18.25;42.52
50977;BME280;36992;48.200;12.418;2023-05-29T04:34:12;96727.81;;;18.24;42.59
50977;BME280;36992;48.200;12.418;2023-05-29T04:36:44;96733.38;;;18.28;42.38
50977;BME280;36992;48.200;12.418;2023-05-29T04:39:11;96739.16;;;18.26;42.99
50977;BME280;36992;48.200;12.418;2023-05-29T04:41:37;96731.44;;;18.28;42.90
50977;BME280;36992;48.200;12.418;2023-05-29T04:44:06;96740.44;;;18.29;43.00
50977;BME280;36992;48.200;12.418;2023-05-29T04:46:33;96738.13;;;18.31;43.47
50977;BME280;36992;48.200;12.418;2023-05-29T04:49:00;96729.97;;;18.31;43.23
50977;BME280;36992;48.200;12.418;2023-05-29T04:51:28;96735.41;;;18.31;42.82
50977;BME280;36992;48.200;12.418;2023-05-29T04:53:56;96734.75;;;18.34;43.29
50977;BME280;36992;48.200;12.418;2023-05-29T04:56:23;96737.47;;;18.34;42.85
50977;BME280;36992;48.200;12.418;2023-05-29T04:58:49;96735.19;;;18.36;42.74
50977;BME280;36992;48.200;12.418;2023-05-29T05:01:16;96746.53;;;18.38;43.14
50977;BME280;36992;48.200;12.418;2023-05-29T05:03:43;96740.75;;;18.40;42.92
50977;BME280;36992;48.200;12.418;2023-05-29T05:06:09;96750.97;;;18.43;42.94
50977;BME280;36992;48.200;12.418;2023-05-29T05:08:38;96745.16;;;18.44;43.28
50977;BME280;36992;48.200;12.418;2023-05-29T05:11:06;96751.19;;;18.50;42.54
50977;BME280;36992;48.200;12.418;2023-05-29T05:13:32;96746.53;;;18.51;43.37
50977;BME280;36992;48.200;12.418;2023-05-29T05:15:59;96749.72;;;18.53;43.53
50977;BME280;36992;48.200;12.418;2023-05-29T05:18:25;96749.34;;;18.54;43.38
50977;BME280;36992;48.200;12.418;2023-05-29T05:20:52;96744.69;;;18.55;42.79
50977;BME280;36992;48.200;12.418;2023-05-29T05:23:18;96748.25;;;18.55;42.59
50977;BME280;36992;48.200;12.418;2023-05-29T05:25:45;96749.03;;;18.56;42.76
50977;BME280;36992;48.200;12.418;2023-05-29T05:28:13;96749.81;;;18.56;41.86
50977;BME280;36992;48.200;12.418;2023-05-29T05:30:40;96749.03;;;18.56;42.37
50977;BME280;36992;48.200;12.418;2023-05-29T05:33:06;96750.59;;;18.57;41.75
50977;BME280;36992;48.200;12.418;2023-05-29T05:35:33;96747.88;;;18.57;42.11
50977;BME280;36992;48.200;12.418;2023-05-29T05:37:59;96752.56;;;18.56;43.93
50977;BME280;36992;48.200;12.418;2023-05-29T05:40:26;96747.09;;;18.56;42.22
50977;BME280;36992;48.200;12.418;2023-05-29T05:42:53;96748.25;;;18.55;42.78
50977;BME280;36992;48.200;12.418;2023-05-29T05:45:20;96757.66;;;18.58;43.06
50977;BME280;36992;48.200;12.418;2023-05-29T05:47:47;96750.59;;;18.57;41.80
50977;BME280;36992;48.200;12.418;2023-05-29T05:50:13;96756.06;;;18.57;41.39
50977;BME280;36992;48.200;12.418;2023-05-29T05:52:40;96755.28;;;18.56;42.29
50977;BME280;36992;48.200;12.418;2023-05-29T05:55:07;96755.28;;;18.56;42.91
50977;BME280;36992;48.200;12.418;2023-05-29T05:57:34;96757.66;;;18.58;41.62
50977;BME280;36992;48.200;12.418;2023-05-29T06:00:01;96761.97;;;18.59;42.25
50977;BME280;36992;48.200;12.418;2023-05-29T06:02:31;96765.59;;;18.63;41.69
50977;BME280;36992;48.200;12.418;2023-05-29T06:04:57;96761.72;;;18.64;42.05
50977;BME280;36992;48.200;12.418;2023-05-29T06:07:24;96770.38;;;18.66;42.21
50977;BME280;36992;48.200;12.418;2023-05-29T06:09:51;96775.13;;;18.69;42.55
50977;BME280;36992;48.200;12.418;2023-05-29T06:12:17;96774.47;;;18.72;41.84
50977;BME280;36992;48.200;12.418;2023-05-29T06:14:44;96775.34;;;18.77;42.34
50977;BME280;36992;48.200;12.418;2023-05-29T06:17:11;96776.47;;;18.76;43.05
50977;BME280;36992;48.200;12.418;2023-05-29T06:19:39;96774.22;;;18.78;42.71
50977;BME280;36992;48.200;12.418;2023-05-29T06:22:06;96775.00;;;18.78;42.55
50977;BME280;36992;48.200;12.418;2023-05-29T06:24:32;96773.84;;;18.79;42.36
50977;BME280;36992;48.200;12.418;2023-05-29T06:26:58;96777.06;;;18.81;42.28
50977;BME280;36992;48.200;12.418;2023-05-29T06:29:26;96782.63;;;18.85;42.44
50977;BME280;36992;48.200;12.418;2023-05-29T06:31:53;96784.63;;;18.88;42.48
50977;BME280;36992;48.200;12.418;2023-05-29T06:34:19;96781.25;;;18.91;42.29
50977;BME280;36992;48.200;12.418;2023-05-29T06:36:47;96788.38;;;18.96;42.18
50977;BME280;36992;48.200;12.418;2023-05-29T06:39:14;96788.81;;;18.98;42.74
50977;BME280;36992;48.200;12.418;2023-05-29T06:41:40;96794.38;;;19.01;42.65
50977;BME280;36992;48.200;12.418;2023-05-29T06:44:07;96808.63;;;19.07;43.27
50977;BME280;36992;48.200;12.418;2023-05-29T06:46:33;96804.84;;;19.12;42.41
50977;BME280;36992;48.200;12.418;2023-05-29T06:49:00;96811.22;;;19.16;42.86
50977;BME280;36992;48.200;12.418;2023-05-29T06:51:26;96807.78;;;19.19;42.37
50977;BME280;36992;48.200;12.418;2023-05-29T06:53:54;96803.66;;;19.25;41.23
50977;BME280;36992;48.200;12.418;2023-05-29T06:56:21;96813.44;;;19.26;41.46
50977;BME280;36992;48.200;12.418;2023-05-29T06:58:47;96806.50;;;19.29;41.04
50977;BME280;36992;48.200;12.418;2023-05-29T07:01:14;96811.28;;;19.32;41.26
50977;BME280;36992;48.200;12.418;2023-05-29T07:03:42;96816.03;;;19.35;41.35
50977;BME280;36992;48.200;12.418;2023-05-29T07:06:08;96817.75;;;19.40;40.62
50977;BME280;36992;48.200;12.418;2023-05-29T07:08:35;96811.91;;;19.41;40.76
50977;BME280;36992;48.200;12.418;2023-05-29T07:11:03;96819.44;;;19.45;40.75
50977;BME280;36992;48.200;12.418;2023-05-29T07:13:29;96822.94;;;19.45;40.90
50977;BME280;36992;48.200;12.418;2023-05-29T07:15:56;96819.53;;;19.48;40.56
50977;BME280;36992;48.200;12.418;2023-05-29T07:18:22;96822.00;;;19.53;41.07
50977;BME280;36992;48.200;12.418;2023-05-29T07:20:48;96826.75;;;19.57;40.82
50977;BME280;36992;48.200;12.418;2023-05-29T07:23:15;96819.81;;;19.59;41.20
50977;BME280;36992;48.200;12.418;2023-05-29T07:25:41;96817.63;;;19.65;41.01
50977;BME280;36992;48.200;12.418;2023-05-29T07:28:09;96828.66;;;19.68;41.06
50977;BME280;36992;48.200;12.418;2023-05-29T07:30:36;96828.75;;;19.72;40.95
50977;BME280;36992;48.200;12.418;2023-05-29T07:33:02;96829.63;;;19.76;41.56
50977;BME280;36992;48.200;12.418;2023-05-29T07:35:29;96828.22;;;19.82;41.08
50977;BME280;36992;48.200;12.418;2023-05-29T07:37:58;96826.47;;;19.90;40.63
50977;BME280;36992;48.200;12.418;2023-05-29T07:40:24;96823.84;;;19.94;40.66
50977;BME280;36992;48.200;12.418;2023-05-29T07:42:51;96819.28;;;19.98;41.41
50977;BME280;36992;48.200;12.418;2023-05-29T07:45:19;96822.19;;;20.05;40.99
50977;BME280;36992;48.200;12.418;2023-05-29T07:47:46;96815.66;;;20.10;40.41
50977;BME280;36992;48.200;12.418;2023-05-29T07:50:14;96818.56;;;20.17;40.58
50977;BME280;36992;48.200;12.418;2023-05-29T07:52:42;96821.84;;;20.23;39.99
50977;BME280;36992;48.200;12.418;2023-05-29T07:55:08;96822.38;;;20.29;40.61
50977;BME280;36992;48.200;12.418;2023-05-29T07:57:35;96817.44;;;20.34;41.37
50977;BME280;36992;48.200;12.418;2023-05-29T08:00:02;96816.81;;;20.41;40.84
50977;BME280;36992;48.200;12.418;2023-05-29T08:02:34;96816.63;;;20.50;40.71
50977;BME280;36992;48.200;12.418;2023-05-29T08:05:02;96816.78;;;20.57;40.70
50977;BME280;36992;48.200;12.418;2023-05-29T08:07:28;96816.16;;;20.64;41.13
50977;BME280;36992;48.200;12.418;2023-05-29T08:09:55;96815.53;;;20.71;40.56
50977;BME280;36992;48.200;12.418;2023-05-29T08:12:22;96817.28;;;20.79;41.22
50977;BME280;36992;48.200;12.418;2023-05-29T08:14:48;96827.25;;;20.87;40.61
50977;BME280;36992;48.200;12.418;2023-05-29T08:17:16;96821.94;;;20.95;40.09
50977;BME280;36992;48.200;12.418;2023-05-29T08:19:43;96822.53;;;21.04;40.48
50977;BME280;36992;48.200;12.418;2023-05-29T08:22:12;96811.72;;;21.11;40.09
50977;BME280;36992;48.200;12.418;2023-05-29T08:24:40;96819.66;;;21.16;40.39
50977;BME280;36992;48.200;12.418;2023-05-29T08:27:06;96812.75;;;21.23;40.25
50977;BME280;36992;48.200;12.418;2023-05-29T08:29:33;96823.03;;;21.29;39.16
50977;BME280;36992;48.200;12.418;2023-05-29T08:32:01;96820.81;;;21.35;38.92
50977;BME280;36992;48.200;12.418;2023-05-29T08:34:27;96819.75;;;21.40;40.02
50977;BME280;36992;48.200;12.418;2023-05-29T08:36:55;96821.44;;;21.48;39.37
50977;BME280;36992;48.200;12.418;2023-05-29T08:39:22;96811.72;;;21.51;39.39
50977;BME280;36992;48.200;12.418;2023-05-29T08:41:53;96820.53;;;21.60;38.68
50977;BME280;36992;48.200;12.418;2023-05-29T08:44:23;96829.59;;;21.64;38.74
50977;BME280;36992;48.200;12.418;2023-05-29T08:46:51;96813.69;;;21.70;38.32
50977;BME280;36992;48.200;12.418;2023-05-29T08:49:21;96814.56;;;21.74;38.30
50977;BME280;36992;48.200;12.418;2023-05-29T08:51:49;96811.13;;;21.81;37.91
50977;BME280;36992;48.200;12.418;2023-05-29T08:54:23;96817.91;;;21.87;38.83
50977;BME280;36992;48.200;12.418;2023-05-29T08:56:50;96811.72;;;21.90;38.09
50977;BME280;36992;48.200;12.418;2023-05-29T08:59:17;96814.13;;;21.95;38.35
50977;BME280;36992;48.200;12.418;2023-05-29T09:01:44;96809.13;;;22.01;37.80
50977;BME280;36992;48.200;12.418;2023-05-29T09:04:10;96809.19;;;22.05;38.26
50977;BME280;36992;48.200;12.418;2023-05-29T09:06:37;96808.53;;;22.12;38.66
50977;BME280;36992;48.200;12.418;2023-05-29T09:09:06;96814.50;;;22.17;37.96
50977;BME280;36992;48.200;12.418;2023-05-29T09:11:34;96819.34;;;22.24;37.68
50977;BME280;36992;48.200;12.418;2023-05-29T09:14:00;96820.16;;;22.28;37.65
50977;BME280;36992;48.200;12.418;2023-05-29T09:16:27;96819.50;;;22.35;37.27
50977;BME280;36992;48.200;12.418;2023-05-29T09:19:04;96813.38;;;22.45;37.53
50977;BME280;36992;48.200;12.418;2023-05-29T09:21:32;96816.09;;;22.45;36.53
50977;BME280;36992;48.200;12.418;2023-05-29T09:24:03;96816.69;;;22.55;36.39
50977;BME280;36992;48.200;12.418;2023-05-29T09:26:31;96820.28;;;22.59;35.89
50977;BME280;36992;48.200;12.418;2023-05-29T09:28:59;96823.09;;;22.62;35.46
50977;BME280;36992;48.200;12.418;2023-05-29T09:31:26;96816.84;;;22.66;35.72
50977;BME280;36992;48.200;12.418;2023-05-29T09:33:53;96813.41;;;22.72;35.70
50977;BME280;36992;48.200;12.418;2023-05-29T09:36:20;96815.84;;;22.77;36.13
50977;BME280;36992;48.200;12.418;2023-05-29T09:38:48;96817.13;;;22.84;34.02
50977;BME280;36992;48.200;12.418;2023-05-29T09:41:20;96814.47;;;22.91;35.03
50977;BME280;36992;48.200;12.418;2023-05-29T09:43:50;96813.28;;;22.92;34.93
50977;BME280;36992;48.200;12.418;2023-05-29T09:46:20;96821.22;;;22.97;34.32
50977;BME280;36992;48.200;12.418;2023-05-29T09:48:46;96808.69;;;23.00;34.53
50977;BME280;36992;48.200;12.418;2023-05-29T09:51:20;96815.09;;;23.11;34.44
50977;BME280;36992;48.200;12.418;2023-05-29T09:53:48;96804.19;;;23.15;32.88
50977;BME280;36992;48.200;12.418;2023-05-29T09:56:16;96810.50;;;23.19;33.74
50977;BME280;36992;48.200;12.418;2023-05-29T09:58:43;96810.56;;;23.26;33.62
50977;BME280;36992;48.200;12.418;2023-05-29T10:01:11;96815.78;;;23.31;32.86
50977;BME280;36992;48.200;12.418;2023-05-29T10:03:39;96815.13;;;23.42;32.99
50977;BME280;36992;48.200;12.418;2023-05-29T10:06:10;96809.34;;;23.51;32.03
50977;BME280;36992;48.200;12.418;2023-05-29T10:08:42;96810.22;;;23.58;33.24
50977;BME280;36992;48.200;12.418;2023-05-29T10:11:13;96813.00;;;23.62;31.96
50977;BME280;36992;48.200;12.418;2023-05-29T10:13:42;96818.94;;;23.68;32.34
50977;BME280;36992;48.200;12.418;2023-05-29T10:16:14;96816.63;;;23.74;32.08
50977;BME280;36992;48.200;12.418;2023-05-29T10:18:44;96808.88;;;23.83;33.17
50977;BME280;36992;48.200;12.418;2023-05-29T10:21:12;96804.19;;;23.83;30.92
50977;BME280;36992;48.200;12.418;2023-05-29T10:23:41;96805.41;;;23.90;30.64
50977;BME280;36992;48.200;12.418;2023-05-29T10:26:12;96797.59;;;23.95;30.85
50977;BME280;36992;48.200;12.418;2023-05-29T10:28:41;96801.56;;;23.98;31.82
50977;BME280;36992;48.200;12.418;2023-05-29T10:31:16;96805.94;;;24.06;31.91
50977;BME280;36992;48.200;12.418;2023-05-29T10:33:54;96804.06;;;24.10;32.26
50977;BME280;36992;48.200;12.418;2023-05-29T10:36:28;96809.63;;;24.18;31.68
50977;BME280;36992;48.200;12.418;2023-05-29T10:38:57;96799.03;;;24.23;29.73
50977;BME280;36992;48.200;12.418;2023-05-29T10:41:31;96802.66;;;24.31;31.71
50977;BME280;36992;48.200;12.418;2023-05-29T10:44:37;96798.38;;;24.41;32.02
50977;BME280;36992;48.200;12.418;2023-05-29T10:47:05;96805.88;;;24.41;30.13
50977;BME280;36992;48.200;12.418;2023-05-29T10:49:35;96803.16;;;24.48;30.15
50977;BME280;36992;48.200;12.418;2023-05-29T10:52:03;96805.56;;;24.53;30.49
50977;BME280;36992;48.200;12.418;2023-05-29T10:54:40;96796.56;;;24.63;31.03
50977;BME280;36992;48.200;12.418;2023-05-29T10:57:08;96787.94;;;24.65;30.01
50977;BME280;36992;48.200;12.418;2023-05-29T10:59:36;96796.25;;;24.72;31.54
50977;BME280;36992;48.200;12.418;2023-05-29T11:02:04;96791.56;;;24.80;30.67
50977;BME280;36992;48.200;12.418;2023-05-29T11:04:31;96787.69;;;24.88;29.42
50977;BME280;36992;48.200;12.418;2023-05-29T11:07:00;96791.28;;;24.96;30.69
50977;BME280;36992;48.200;12.418;2023-05-29T11:09:32;96794.88;;;25.04;30.57
50977;BME280;36992;48.200;12.418;2023-05-29T11:12:14;96791.78;;;25.16;30.75
50977;BME280;36992;48.200;12.418;2023-05-29T11:14:54;96791.81;;;25.24;30.39
50977;BME280;36992;48.200;12.418;2023-05-29T11:17:32;96794.97;;;25.33;30.48
50977;BME280;36992;48.200;12.418;2023-05-29T11:20:02;96787.13;;;25.39;29.07
50977;BME280;36992;48.200;12.418;2023-05-29T11:22:48;96787.16;;;25.50;30.56
50977;BME280;36992;48.200;12.418;2023-05-29T11:25:20;96791.13;;;25.52;29.70
50977;BME280;36992;48.200;12.418;2023-05-29T11:27:47;96792.72;;;25.61;29.15
50977;BME280;36992;48.200;12.418;2023-05-29T11:30:13;96789.22;;;25.67;29.89
50977;BME280;36992;48.200;12.418;2023-05-29T11:32:43;96789.59;;;25.77;29.18
50977;BME280;36992;48.200;12.418;2023-05-29T11:35:11;96788.47;;;25.81;29.05
50977;BME280;36992;48.200;12.418;2023-05-29T11:37:41;96790.03;;;25.90;29.67
50977;BME280;36992;48.200;12.418;2023-05-29T11:40:11;96782.94;;;25.96;28.26
50977;BME280;36992;48.200;12.418;2023-05-29T11:42:41;96788.47;;;26.03;28.75
50977;BME280;36992;48.200;12.418;2023-05-29T11:45:11;96783.34;;;26.09;27.69
50977;BME280;36992;48.200;12.418;2023-05-29T11:47:51;96782.16;;;26.21;28.21
50977;BME280;36992;48.200;12.418;2023-05-29T11:50:18;96781.81;;;26.22;27.24
50977;BME280;36992;48.200;12.418;2023-05-29T11:52:46;96776.66;;;26.28;27.94
50977;BME280;36992;48.200;12.418;2023-05-29T11:55:13;96781.00;;;26.33;28.32
50977;BME280;36992;48.200;12.418;2023-05-29T11:57:40;96785.72;;;26.39;28.98
50977;BME280;36992;48.200;12.418;2023-05-29T12:00:07;96781.78;;;26.48;26.28
50977;BME280;36992;48.200;12.418;2023-05-29T12:02:36;96785.72;;;26.50;27.76
50977;BME280;36992;48.200;12.418;2023-05-29T12:05:04;96789.66;;;26.57;27.16
50977;BME280;36992;48.200;12.418;2023-05-29T12:07:32;96784.94;;;26.61;25.66
50977;BME280;36992;48.200;12.418;2023-05-29T12:10:10;96777.00;;;26.70;27.52
50977;BME280;36992;48.200;12.418;2023-05-29T12:12:36;96779.38;;;26.68;26.90
50977;BME280;36992;48.200;12.418;2023-05-29T12:15:05;96785.69;;;26.72;25.55
50977;BME280;36992;48.200;12.418;2023-05-29T12:17:32;96788.84;;;26.74;26.56
50977;BME280;36992;48.200;12.418;2023-05-29T12:19:59;96779.34;;;26.75;25.48
50977;BME280;36992;48.200;12.418;2023-05-29T12:22:36;96783.66;;;26.84;27.12
50977;BME280;36992;48.200;12.418;2023-05-29T12:25:05;96780.91;;;26.84;26.47
50977;BME280;36992;48.200;12.418;2023-05-29T12:27:34;96775.41;;;26.87;26.80
50977;BME280;36992;48.200;12.418;2023-05-29T12:30:07;96776.97;;;26.92;25.29
50977;BME280;36992;48.200;12.418;2023-05-29T12:32:35;96773.00;;;26.97;25.96
50977;BME280;36992;48.200;12.418;2023-05-29T12:35:10;96777.72;;;27.07;26.37
50977;BME280;36992;48.200;12.418;2023-05-29T12:37:41;96777.72;;;27.11;26.08
50977;BME280;36992;48.200;12.418;2023-05-29T12:40:09;96776.94;;;27.06;25.47
50977;BME280;36992;48.200;12.418;2023-05-29T12:42:38;96782.84;;;27.09;25.91
50977;BME280;36992;48.200;12.418;2023-05-29T12:45:07;96781.25;;;27.07;24.82
50977;BME280;36992;48.200;12.418;2023-05-29T12:47:35;96778.13;;;27.05;25.09
50977;BME280;36992;48.200;12.418;2023-05-29T12:50:06;96774.16;;;27.10;25.46
50977;BME280;36992;48.200;12.418;2023-05-29T12:52:45;96778.09;;;27.09;24.54
50977;BME280;36992;48.200;12.418;2023-05-29T12:55:11;96776.91;;;27.10;24.55